SAS125 EHAM-EKCH
Flight info
| Callsign | SAS125 |
|---|---|
| Flight time | 0h 53m |
| Altitude | 33000 |
| Route | ANDIK N873 JUIST DCT DOSUR P729 TUDLO |
| Aircraft | A320/M-SDE3FGHIRWY/LB1 |
Departure
| Time | 2026-05-05 18:55 |
|---|---|
| Airport | Amsterdam Airport Schiphol (EHAM) |
Arrival
| Time | 2026-05-05 19:49 |
|---|---|
| Airport | Copenhagen Kastrup Airport (EKCH) |
| Time | Latitude | Longitude | Altitude | Speed | Heading |
|---|---|---|---|---|---|
| 2026-05-05 18:18 | 52.30442 | 4.76321 | -1 ft | 0 kts | 238° |
| 2026-05-05 18:40 | 52.30450 | 4.76343 | -1 ft | 4 kts | 239° |
| 2026-05-05 18:40 | 52.30465 | 4.76378 | -1 ft | 4 kts | 214° |
| 2026-05-05 18:40 | 52.30478 | 4.76386 | -1 ft | 0 kts | 159° |
| 2026-05-05 18:44 | 52.30471 | 4.76395 | -1 ft | 5 kts | 144° |
| 2026-05-05 18:45 | 52.30429 | 4.76442 | -1 ft | 9 kts | 146° |
| 2026-05-05 18:45 | 52.30375 | 4.76499 | -1 ft | 8 kts | 148° |
| 2026-05-05 18:45 | 52.30322 | 4.76537 | -1 ft | 9 kts | 178° |
| 2026-05-05 18:45 | 52.30275 | 4.76468 | -1 ft | 10 kts | 240° |
| 2026-05-05 18:46 | 52.30232 | 4.76359 | -1 ft | 12 kts | 238° |
| 2026-05-05 18:46 | 52.30183 | 4.76230 | -1 ft | 14 kts | 238° |
| 2026-05-05 18:46 | 52.30125 | 4.76081 | -1 ft | 17 kts | 238° |
| 2026-05-05 18:46 | 52.30060 | 4.75910 | -1 ft | 19 kts | 238° |
| 2026-05-05 18:47 | 52.29989 | 4.75726 | -1 ft | 17 kts | 238° |
| 2026-05-05 18:47 | 52.29923 | 4.75553 | -1 ft | 19 kts | 237° |
| 2026-05-05 18:47 | 52.29867 | 4.75407 | -1 ft | 8 kts | 237° |
| 2026-05-05 18:47 | 52.29835 | 4.75320 | -1 ft | 10 kts | 247° |
| 2026-05-05 18:48 | 52.29843 | 4.75195 | -1 ft | 13 kts | 295° |
| 2026-05-05 18:48 | 52.29905 | 4.75072 | -1 ft | 15 kts | 311° |
| 2026-05-05 18:48 | 52.29980 | 4.74932 | -1 ft | 17 kts | 311° |
| 2026-05-05 18:48 | 52.30066 | 4.74776 | 0 ft | 19 kts | 312° |
| 2026-05-05 18:49 | 52.30144 | 4.74634 | 10 ft | 15 kts | 311° |
| 2026-05-05 18:49 | 52.30217 | 4.74500 | 12 ft | 16 kts | 311° |
| 2026-05-05 18:49 | 52.30293 | 4.74357 | 8 ft | 16 kts | 311° |
| 2026-05-05 18:49 | 52.30331 | 4.74256 | -1 ft | 0 kts | 288° |
| 2026-05-05 18:50 | 52.30338 | 4.74245 | -1 ft | 3 kts | 314° |
| 2026-05-05 18:50 | 52.30354 | 4.74219 | -1 ft | 4 kts | 313° |
| 2026-05-05 18:50 | 52.30369 | 4.74154 | -1 ft | 8 kts | 271° |
| 2026-05-05 18:50 | 52.30339 | 4.74068 | -1 ft | 10 kts | 226° |
| 2026-05-05 18:51 | 52.30295 | 4.74006 | -1 ft | 7 kts | 219° |
| 2026-05-05 18:51 | 52.30270 | 4.73974 | -1 ft | 2 kts | 218° |
| 2026-05-05 18:51 | 52.30259 | 4.73960 | -1 ft | 2 kts | 219° |
| 2026-05-05 18:51 | 52.30239 | 4.73934 | -1 ft | 5 kts | 217° |
| 2026-05-05 18:52 | 52.30230 | 4.73923 | -1 ft | 2 kts | 217° |
| 2026-05-05 18:52 | 52.30229 | 4.73922 | -1 ft | 0 kts | 217° |
| 2026-05-05 18:52 | 52.30222 | 4.73913 | -1 ft | 1 kts | 217° |
| 2026-05-05 18:53 | 52.30210 | 4.73898 | -1 ft | 3 kts | 217° |
| 2026-05-05 18:53 | 52.30192 | 4.73855 | -2 ft | 6 kts | 255° |
| 2026-05-05 18:53 | 52.30198 | 4.73772 | -2 ft | 9 kts | 284° |
| 2026-05-05 18:53 | 52.30251 | 4.73740 | -3 ft | 1 kts | 4° |
| 2026-05-05 18:54 | 52.30256 | 4.73740 | -3 ft | 0 kts | 4° |
| 2026-05-05 18:54 | 52.30278 | 4.73743 | -4 ft | 11 kts | 4° |
| 2026-05-05 18:54 | 52.30597 | 4.73774 | -3 ft | 79 kts | 3° |
| 2026-05-05 18:54 | 52.31333 | 4.73837 | -2 ft | 131 kts | 3° |
| 2026-05-05 18:55 | 52.32353 | 4.73942 | 212 ft | 151 kts | 3° |
| 2026-05-05 18:55 | 52.33401 | 4.74136 | 773 ft | 152 kts | 19° |
| 2026-05-05 18:55 | 52.34397 | 4.74737 | 1314 ft | 155 kts | 21° |
| 2026-05-05 18:55 | 52.35485 | 4.75423 | 1562 ft | 177 kts | 21° |
| 2026-05-05 18:56 | 52.36688 | 4.76181 | 1799 ft | 199 kts | 21° |
| 2026-05-05 18:56 | 52.37993 | 4.77216 | 2100 ft | 221 kts | 38° |
| 2026-05-05 18:56 | 52.39148 | 4.79058 | 2573 ft | 240 kts | 45° |
| 2026-05-05 18:56 | 52.40330 | 4.81034 | 3436 ft | 244 kts | 45° |
| 2026-05-05 18:57 | 52.41513 | 4.83017 | 4313 ft | 248 kts | 45° |
| 2026-05-05 18:57 | 52.42754 | 4.84993 | 5121 ft | 253 kts | 36° |
| 2026-05-05 18:57 | 52.44372 | 4.86189 | 5719 ft | 262 kts | 10° |
| 2026-05-05 18:57 | 52.46203 | 4.86221 | 5885 ft | 265 kts | 358° |
| 2026-05-05 18:58 | 52.48036 | 4.86029 | 5923 ft | 266 kts | 357° |
| 2026-05-05 18:58 | 52.49905 | 4.85825 | 6527 ft | 269 kts | 357° |
| 2026-05-05 18:58 | 52.51774 | 4.85777 | 7388 ft | 270 kts | 7° |
| 2026-05-05 18:58 | 52.53604 | 4.86549 | 8153 ft | 275 kts | 23° |
| 2026-05-05 18:59 | 52.55249 | 4.88201 | 8879 ft | 280 kts | 40° |
| 2026-05-05 18:59 | 52.56568 | 4.90594 | 9590 ft | 286 kts | 52° |
| 2026-05-05 18:59 | 52.57802 | 4.93192 | 10243 ft | 294 kts | 52° |
| 2026-05-05 18:59 | 52.59114 | 4.95945 | 10452 ft | 317 kts | 51° |
| 2026-05-05 19:00 | 52.60525 | 4.98900 | 10603 ft | 340 kts | 51° |
| 2026-05-05 19:00 | 52.62038 | 5.02059 | 10737 ft | 362 kts | 51° |
| 2026-05-05 19:00 | 52.63624 | 5.05370 | 11144 ft | 372 kts | 51° |
| 2026-05-05 19:00 | 52.65237 | 5.08738 | 11708 ft | 377 kts | 51° |
| 2026-05-05 19:01 | 52.66828 | 5.12066 | 12280 ft | 382 kts | 51° |
| 2026-05-05 19:01 | 52.68480 | 5.15534 | 12848 ft | 387 kts | 51° |
| 2026-05-05 19:01 | 52.70146 | 5.19036 | 13427 ft | 390 kts | 52° |
| 2026-05-05 19:01 | 52.71828 | 5.22577 | 14023 ft | 394 kts | 52° |
| 2026-05-05 19:02 | 52.73520 | 5.26145 | 14595 ft | 398 kts | 52° |
| 2026-05-05 19:02 | 52.75240 | 5.29777 | 15148 ft | 402 kts | 52° |
| 2026-05-05 19:02 | 52.76967 | 5.33420 | 15693 ft | 405 kts | 51° |
| 2026-05-05 19:02 | 52.78714 | 5.37101 | 16233 ft | 409 kts | 52° |
| 2026-05-05 19:03 | 52.80473 | 5.40816 | 16795 ft | 412 kts | 52° |
| 2026-05-05 19:03 | 52.82245 | 5.44568 | 17352 ft | 415 kts | 52° |
| 2026-05-05 19:03 | 52.84027 | 5.48358 | 17875 ft | 420 kts | 52° |
| 2026-05-05 19:03 | 52.85826 | 5.52192 | 18395 ft | 423 kts | 52° |
| 2026-05-05 19:04 | 52.87642 | 5.56066 | 18913 ft | 427 kts | 52° |
| 2026-05-05 19:04 | 52.89464 | 5.59963 | 19400 ft | 431 kts | 52° |
| 2026-05-05 19:04 | 52.91281 | 5.63856 | 19867 ft | 434 kts | 52° |
| 2026-05-05 19:04 | 52.93135 | 5.67842 | 20310 ft | 438 kts | 52° |
| 2026-05-05 19:05 | 52.95002 | 5.71861 | 20734 ft | 442 kts | 52° |
| 2026-05-05 19:05 | 52.96889 | 5.75922 | 21141 ft | 445 kts | 52° |
| 2026-05-05 19:05 | 52.98789 | 5.80011 | 21531 ft | 449 kts | 52° |
| 2026-05-05 19:05 | 53.00699 | 5.84127 | 21890 ft | 452 kts | 52° |
| 2026-05-05 19:06 | 53.02621 | 5.88275 | 22246 ft | 455 kts | 52° |
| 2026-05-05 19:06 | 53.04569 | 5.92446 | 22592 ft | 458 kts | 51° |
| 2026-05-05 19:06 | 53.06593 | 5.96558 | 22928 ft | 461 kts | 50° |
| 2026-05-05 19:06 | 53.08681 | 6.00607 | 23239 ft | 464 kts | 49° |
| 2026-05-05 19:07 | 53.10824 | 6.04658 | 23551 ft | 467 kts | 48° |
| 2026-05-05 19:07 | 53.12987 | 6.08724 | 23856 ft | 470 kts | 48° |
| 2026-05-05 19:07 | 53.15149 | 6.12824 | 24156 ft | 473 kts | 49° |
| 2026-05-05 19:07 | 53.17311 | 6.16976 | 24472 ft | 475 kts | 49° |
| 2026-05-05 19:08 | 53.19466 | 6.21162 | 24762 ft | 478 kts | 49° |
| 2026-05-05 19:08 | 53.21629 | 6.25399 | 25044 ft | 481 kts | 49° |
| 2026-05-05 19:08 | 53.23794 | 6.29658 | 25337 ft | 483 kts | 50° |
| 2026-05-05 19:08 | 53.25984 | 6.33970 | 25616 ft | 486 kts | 49° |
| 2026-05-05 19:09 | 53.28180 | 6.38266 | 25984 ft | 486 kts | 49° |
| 2026-05-05 19:09 | 53.30379 | 6.42561 | 26392 ft | 486 kts | 49° |
| 2026-05-05 19:09 | 53.32573 | 6.46837 | 26779 ft | 486 kts | 49° |
| 2026-05-05 19:09 | 53.34778 | 6.51134 | 27154 ft | 486 kts | 49° |
| 2026-05-05 19:10 | 53.36981 | 6.55436 | 27536 ft | 486 kts | 49° |
| 2026-05-05 19:10 | 53.39176 | 6.59752 | 27923 ft | 486 kts | 50° |
| 2026-05-05 19:10 | 53.41360 | 6.64076 | 28306 ft | 486 kts | 50° |
| 2026-05-05 19:10 | 53.43537 | 6.68409 | 28671 ft | 487 kts | 50° |
| 2026-05-05 19:11 | 53.45719 | 6.72768 | 29037 ft | 487 kts | 50° |
| 2026-05-05 19:11 | 53.47903 | 6.77140 | 29420 ft | 487 kts | 50° |
| 2026-05-05 19:11 | 53.50099 | 6.81536 | 29797 ft | 487 kts | 50° |
| 2026-05-05 19:11 | 53.52255 | 6.85854 | 30145 ft | 488 kts | 50° |
| 2026-05-05 19:12 | 53.54436 | 6.90228 | 30508 ft | 488 kts | 50° |
| 2026-05-05 19:12 | 53.56613 | 6.94605 | 30901 ft | 488 kts | 50° |
| 2026-05-05 19:12 | 53.58785 | 6.98976 | 31300 ft | 487 kts | 50° |
| 2026-05-05 19:12 | 53.60958 | 7.03357 | 31684 ft | 486 kts | 50° |
| 2026-05-05 19:13 | 53.63121 | 7.07728 | 32075 ft | 486 kts | 50° |
| 2026-05-05 19:13 | 53.65281 | 7.12100 | 32474 ft | 485 kts | 50° |
| 2026-05-05 19:13 | 53.67435 | 7.16465 | 32815 ft | 485 kts | 50° |
| 2026-05-05 19:13 | 53.69591 | 7.20838 | 32911 ft | 487 kts | 50° |
| 2026-05-05 19:14 | 53.73983 | 7.29778 | 32924 ft | 500 kts | 50° |
| 2026-05-05 19:14 | 53.78427 | 7.38859 | 32925 ft | 503 kts | 50° |
| 2026-05-05 19:15 | 53.82893 | 7.48019 | 32924 ft | 504 kts | 50° |
| 2026-05-05 19:15 | 53.87330 | 7.57150 | 32924 ft | 505 kts | 50° |
| 2026-05-05 19:16 | 53.91824 | 7.66427 | 32926 ft | 506 kts | 50° |
| 2026-05-05 19:16 | 53.96285 | 7.75685 | 32922 ft | 507 kts | 50° |
| 2026-05-05 19:17 | 54.00743 | 7.84968 | 32919 ft | 507 kts | 50° |
| 2026-05-05 19:17 | 54.05196 | 7.94269 | 32914 ft | 507 kts | 50° |
| 2026-05-05 19:18 | 54.09649 | 8.03600 | 32912 ft | 508 kts | 50° |
| 2026-05-05 19:18 | 54.14090 | 8.12952 | 32913 ft | 508 kts | 50° |
| 2026-05-05 19:19 | 54.18528 | 8.22341 | 32914 ft | 508 kts | 50° |
| 2026-05-05 19:19 | 54.22965 | 8.31744 | 32920 ft | 508 kts | 50° |
| 2026-05-05 19:20 | 54.27367 | 8.41105 | 32918 ft | 508 kts | 50° |
| 2026-05-05 19:20 | 54.31788 | 8.50555 | 32922 ft | 508 kts | 50° |
| 2026-05-05 19:21 | 54.36192 | 8.60022 | 32929 ft | 508 kts | 50° |
| 2026-05-05 19:21 | 54.40594 | 8.69508 | 32935 ft | 508 kts | 50° |
| 2026-05-05 19:22 | 54.45000 | 8.79021 | 32937 ft | 508 kts | 50° |
| 2026-05-05 19:22 | 54.49387 | 8.88534 | 32937 ft | 508 kts | 50° |
| 2026-05-05 19:23 | 54.53760 | 8.98083 | 32938 ft | 508 kts | 51° |
| 2026-05-05 19:23 | 54.58130 | 9.07655 | 32936 ft | 508 kts | 50° |
| 2026-05-05 19:24 | 54.61783 | 9.15657 | 32936 ft | 507 kts | 50° |
| 2026-05-05 19:24 | 54.66150 | 9.25264 | 32933 ft | 507 kts | 51° |
| 2026-05-05 19:25 | 54.70488 | 9.34861 | 32930 ft | 507 kts | 51° |
| 2026-05-05 19:25 | 54.74826 | 9.44499 | 32931 ft | 507 kts | 51° |
| 2026-05-05 19:26 | 54.79130 | 9.54105 | 32933 ft | 508 kts | 51° |
| 2026-05-05 19:26 | 54.83458 | 9.63793 | 32937 ft | 508 kts | 51° |
| 2026-05-05 19:27 | 54.87778 | 9.73489 | 32940 ft | 508 kts | 51° |
| 2026-05-05 19:27 | 54.92091 | 9.83215 | 32947 ft | 508 kts | 51° |
| 2026-05-05 19:28 | 54.96395 | 9.92955 | 32951 ft | 508 kts | 51° |
| 2026-05-05 19:28 | 55.00688 | 10.02712 | 32959 ft | 507 kts | 51° |
| 2026-05-05 19:29 | 55.02829 | 10.07593 | 32808 ft | 507 kts | 51° |
| 2026-05-05 19:29 | 55.04963 | 10.12472 | 32558 ft | 506 kts | 51° |
| 2026-05-05 19:29 | 55.07102 | 10.17365 | 32309 ft | 506 kts | 51° |
| 2026-05-05 19:29 | 55.09238 | 10.22260 | 32016 ft | 506 kts | 51° |
| 2026-05-05 19:30 | 55.11379 | 10.27167 | 30895 ft | 513 kts | 51° |
| 2026-05-05 19:30 | 55.13553 | 10.32158 | 29867 ft | 516 kts | 51° |
| 2026-05-05 19:30 | 55.15725 | 10.37168 | 28684 ft | 521 kts | 51° |
| 2026-05-05 19:30 | 55.17921 | 10.42253 | 27481 ft | 524 kts | 51° |
| 2026-05-05 19:31 | 55.20117 | 10.47358 | 26186 ft | 526 kts | 51° |
| 2026-05-05 19:31 | 55.22321 | 10.52494 | 24804 ft | 528 kts | 51° |
| 2026-05-05 19:31 | 55.24524 | 10.57631 | 23527 ft | 527 kts | 51° |
| 2026-05-05 19:31 | 55.26555 | 10.62919 | 22773 ft | 517 kts | 59° |
| 2026-05-05 19:32 | 55.28128 | 10.68531 | 21872 ft | 511 kts | 68° |
| 2026-05-05 19:32 | 55.29253 | 10.74401 | 20970 ft | 505 kts | 73° |
| 2026-05-05 19:32 | 55.30255 | 10.80278 | 20072 ft | 499 kts | 73° |
| 2026-05-05 19:32 | 55.31242 | 10.86082 | 19222 ft | 493 kts | 73° |
| 2026-05-05 19:33 | 55.32213 | 10.91820 | 18392 ft | 487 kts | 73° |
| 2026-05-05 19:33 | 55.33171 | 10.97465 | 17543 ft | 478 kts | 73° |
| 2026-05-05 19:33 | 55.34103 | 11.02981 | 16172 ft | 466 kts | 73° |
| 2026-05-05 19:33 | 55.34999 | 11.08350 | 15358 ft | 446 kts | 73° |
| 2026-05-05 19:34 | 55.35835 | 11.13410 | 14610 ft | 429 kts | 73° |
| 2026-05-05 19:34 | 55.36663 | 11.18442 | 13876 ft | 416 kts | 73° |
| 2026-05-05 19:34 | 55.37453 | 11.23241 | 13183 ft | 411 kts | 73° |
| 2026-05-05 19:35 | 55.38942 | 11.32296 | 12689 ft | 358 kts | 73° |
| 2026-05-05 19:35 | 55.39608 | 11.36370 | 12457 ft | 338 kts | 73° |
| 2026-05-05 19:35 | 55.40244 | 11.40271 | 12178 ft | 327 kts | 73° |
| 2026-05-05 19:35 | 55.40868 | 11.44111 | 11928 ft | 325 kts | 73° |
| 2026-05-05 19:36 | 55.41435 | 11.47992 | 11675 ft | 338 kts | 82° |
| 2026-05-05 19:36 | 55.41599 | 11.52205 | 11431 ft | 345 kts | 87° |
| 2026-05-05 19:36 | 55.41714 | 11.56380 | 11176 ft | 339 kts | 87° |
| 2026-05-05 19:36 | 55.41821 | 11.60492 | 10927 ft | 335 kts | 87° |
| 2026-05-05 19:37 | 55.41924 | 11.64577 | 10677 ft | 332 kts | 87° |
| 2026-05-05 19:37 | 55.42021 | 11.68611 | 10431 ft | 329 kts | 87° |
| 2026-05-05 19:37 | 55.42119 | 11.72631 | 10275 ft | 327 kts | 87° |
| 2026-05-05 19:37 | 55.42215 | 11.76543 | 10124 ft | 310 kts | 87° |
| 2026-05-05 19:38 | 55.42304 | 11.80170 | 9997 ft | 291 kts | 87° |
| 2026-05-05 19:38 | 55.42389 | 11.83641 | 9748 ft | 279 kts | 87° |
| 2026-05-05 19:38 | 55.42472 | 11.87051 | 9255 ft | 281 kts | 87° |
| 2026-05-05 19:38 | 55.42551 | 11.90415 | 9054 ft | 270 kts | 86° |
| 2026-05-05 19:39 | 55.42627 | 11.93686 | 8606 ft | 265 kts | 86° |
| 2026-05-05 19:39 | 55.42703 | 11.96904 | 8137 ft | 261 kts | 86° |
| 2026-05-05 19:39 | 55.42778 | 12.00111 | 7497 ft | 265 kts | 86° |
| 2026-05-05 19:39 | 55.42851 | 12.03314 | 7121 ft | 258 kts | 86° |
| 2026-05-05 19:40 | 55.42919 | 12.06432 | 6672 ft | 253 kts | 86° |
| 2026-05-05 19:40 | 55.42984 | 12.09534 | 6136 ft | 255 kts | 86° |
| 2026-05-05 19:40 | 55.43050 | 12.12652 | 5901 ft | 252 kts | 86° |
| 2026-05-05 19:40 | 55.43112 | 12.15702 | 5668 ft | 248 kts | 86° |
| 2026-05-05 19:41 | 55.43172 | 12.18717 | 5488 ft | 239 kts | 86° |
| 2026-05-05 19:41 | 55.43227 | 12.21546 | 5264 ft | 227 kts | 86° |
| 2026-05-05 19:41 | 55.43283 | 12.24320 | 4833 ft | 229 kts | 86° |
| 2026-05-05 19:41 | 55.43342 | 12.27200 | 4303 ft | 239 kts | 85° |
| 2026-05-05 19:42 | 55.43401 | 12.30109 | 4082 ft | 234 kts | 85° |
| 2026-05-05 19:42 | 55.43454 | 12.32838 | 3958 ft | 217 kts | 85° |
| 2026-05-05 19:42 | 55.43644 | 12.35324 | 3891 ft | 194 kts | 69° |
| 2026-05-05 19:42 | 55.44193 | 12.37426 | 3796 ft | 186 kts | 53° |
| 2026-05-05 19:43 | 55.45005 | 12.39166 | 3695 ft | 180 kts | 47° |
| 2026-05-05 19:43 | 55.45789 | 12.40739 | 3631 ft | 165 kts | 43° |
| 2026-05-05 19:43 | 55.46597 | 12.42126 | 3519 ft | 161 kts | 40° |
| 2026-05-05 19:43 | 55.47424 | 12.43448 | 3330 ft | 160 kts | 39° |
| 2026-05-05 19:44 | 55.48257 | 12.44746 | 3129 ft | 159 kts | 38° |
| 2026-05-05 19:44 | 55.49088 | 12.46028 | 2922 ft | 159 kts | 38° |
| 2026-05-05 19:44 | 55.49921 | 12.47309 | 2724 ft | 158 kts | 38° |
| 2026-05-05 19:44 | 55.50751 | 12.48582 | 2500 ft | 158 kts | 38° |
| 2026-05-05 19:45 | 55.51581 | 12.49856 | 2292 ft | 158 kts | 38° |
| 2026-05-05 19:45 | 55.52408 | 12.51129 | 2082 ft | 158 kts | 38° |
| 2026-05-05 19:45 | 55.53198 | 12.52344 | 1878 ft | 145 kts | 38° |
| 2026-05-05 19:45 | 55.53930 | 12.53470 | 1695 ft | 137 kts | 37° |
| 2026-05-05 19:46 | 55.54649 | 12.54578 | 1516 ft | 137 kts | 38° |
| 2026-05-05 19:46 | 55.55365 | 12.55679 | 1333 ft | 136 kts | 38° |
| 2026-05-05 19:46 | 55.56082 | 12.56782 | 1153 ft | 136 kts | 38° |
| 2026-05-05 19:46 | 55.56794 | 12.57879 | 966 ft | 136 kts | 38° |
| 2026-05-05 19:47 | 55.57505 | 12.58976 | 790 ft | 136 kts | 38° |
| 2026-05-05 19:47 | 55.58215 | 12.60073 | 619 ft | 136 kts | 38° |
| 2026-05-05 19:47 | 55.58935 | 12.61162 | 411 ft | 137 kts | 38° |
| 2026-05-05 19:47 | 55.59649 | 12.62260 | 247 ft | 136 kts | 39° |
| 2026-05-05 19:48 | 55.60352 | 12.63354 | 62 ft | 136 kts | 40° |
| 2026-05-05 19:48 | 55.61019 | 12.64381 | 23 ft | 108 kts | 41° |
| 2026-05-05 19:48 | 55.61452 | 12.65054 | 24 ft | 58 kts | 40° |
| 2026-05-05 19:48 | 55.61736 | 12.65496 | 23 ft | 52 kts | 42° |
| 2026-05-05 19:49 | 55.61995 | 12.65897 | 24 ft | 47 kts | 41° |
| 2026-05-05 19:49 | 55.62141 | 12.66109 | 23 ft | 32 kts | 30° |
| 2026-05-05 19:49 | 55.62301 | 12.66100 | 23 ft | 0 kts | 333° |
| 2026-05-05 19:51 | 55.62314 | 12.66072 | 23 ft | 4 kts | 294° |
| 2026-05-05 19:51 | 55.62316 | 12.66006 | 24 ft | 6 kts | 250° |
| 2026-05-05 19:51 | 55.62302 | 12.65919 | 24 ft | 8 kts | 266° |
| 2026-05-05 19:52 | 55.62300 | 12.65814 | 24 ft | 10 kts | 267° |
| 2026-05-05 19:52 | 55.62299 | 12.65686 | 25 ft | 10 kts | 270° |
| 2026-05-05 19:52 | 55.62298 | 12.65563 | 24 ft | 10 kts | 269° |
| 2026-05-05 19:52 | 55.62297 | 12.65454 | 24 ft | 6 kts | 268° |
| 2026-05-05 19:53 | 55.62296 | 12.65361 | 24 ft | 9 kts | 268° |
| 2026-05-05 19:53 | 55.62293 | 12.65234 | 25 ft | 12 kts | 268° |
| 2026-05-05 19:53 | 55.62277 | 12.65086 | 24 ft | 13 kts | 276° |
| 2026-05-05 19:53 | 55.62314 | 12.64978 | 24 ft | 11 kts | 306° |
| 2026-05-05 19:54 | 55.62359 | 12.64851 | 24 ft | 14 kts | 302° |
| 2026-05-05 19:54 | 55.62392 | 12.64761 | 24 ft | 0 kts | 303° |
| 2026-05-05 19:55 | 55.62395 | 12.64755 | 24 ft | 2 kts | 303° |
| 2026-05-05 19:55 | 55.62407 | 12.64722 | 26 ft | 5 kts | 303° |
| 2026-05-05 19:55 | 55.62430 | 12.64661 | 24 ft | 7 kts | 303° |
| 2026-05-05 19:56 | 55.62463 | 12.64570 | 24 ft | 10 kts | 303° |
| 2026-05-05 19:56 | 55.62508 | 12.64451 | 26 ft | 10 kts | 303° |
| 2026-05-05 19:56 | 55.62527 | 12.64413 | 24 ft | 1 kts | 328° |
| 2026-05-05 19:56 | 55.62532 | 12.64411 | 24 ft | 1 kts | 347° |
| 2026-05-05 19:57 | 55.62542 | 12.64417 | 24 ft | 0 kts | 29° |
| 2026-05-05 19:57 | 55.62547 | 12.64423 | 26 ft | 2 kts | 29° |
| 2026-05-05 19:57 | 55.62573 | 12.64450 | 24 ft | 2 kts | 32° |
| 2026-05-05 19:57 | 55.62580 | 12.64458 | 24 ft | 0 kts | 33° |
| 2026-05-05 19:58 | 55.62581 | 12.64458 | 24 ft | 0 kts | 33° |